Filia Ariea — PIET — position and weather

sailwx.info

Track history (hours):
 
Tides and Currents Weather Stations Pressure Air Temp Water Temp Dewpoint Dewpoint Depression Visibility Wind Speed Wind Dir Waves Ship Positions

Filia Ariea

Last reported at 2015-Aug-25 07:07 UTC. Time now 2015-Aug-29 18:58 UTC.
Position N 40°27' W 008°56'.

Length 90 m; draft 3.2 m.

Type: Cargo ship. MMSI: 244662000.

Date/timePositionNaut miles runAvg speedWind from/ knotsBaromVisibWave heightAir tempDewpointWater temp
2015-Aug-25 07:07N 40°27' W 008°56'712.0
2015-Aug-25 06:33N 40°21' W 009°01'1412.0
2015-Aug-25 05:24N 40°10' W 009°11'1012.0
2015-Aug-25 04:33N 40°01' W 009°18'2311.6
2015-Aug-25 02:31N 39°41' W 009°34'1311.5
2015-Aug-25 01:25N 39°30' W 009°43'911.1
2015-Aug-25 00:33N 39°21' W 009°44'1111.0
2015-Aug-24 23:33N 39°10' W 009°45'2110.7
2015-Aug-24 21:34N 38°49' W 009°50'1110.6
2015-Aug-24 20:33N 38°38' W 009°49'1010.3
2015-Aug-24 19:33N 38°28' W 009°47'1010.0
2015-Aug-24 18:34N 38°18' W 009°44'10 9.5
2015-Aug-24 17:33N 38°09' W 009°41'10 9.7
2015-Aug-24 16:33N 37°60' W 009°38'1010.1
2015-Aug-24 15:33N 37°50' W 009°34'1110.4
2015-Aug-24 14:32N 37°40' W 009°31'66 9.5
2015-Aug-24 07:33N 36°42' W 008°51'1310.6
2015-Aug-24 06:21N 36°38' W 008°35'351 8.2
2015-Aug-22 11:32N 37°05' W 001°18'1311.1
2015-Aug-22 10:22N 37°14' W 001°06'911.4
2015-Aug-22 09:33N 37°20' W 000°57'1111.0
2015-Aug-22 08:33N 37°27' W 000°46'1111.4
2015-Aug-22 07:33N 37°34' W 000°35'1212.4
2015-Aug-22 06:33N 37°44' W 000°26'1312.8
2015-Aug-22 05:33N 37°55' W 000°17'1313.1
2015-Aug-22 04:33N 38°06' W 000°08'1312.4
2015-Aug-22 03:31N 38°17' E 000°00'1412.3
2015-Aug-22 02:21N 38°29' E 000°09'1012.1
2015-Aug-22 01:31N 38°38' E 000°17'1111.8
2015-Aug-22 00:33N 38°48' E 000°24'1412.4
2015-Aug-21 23:23N 39°01' E 000°29'1012.1
2015-Aug-21 22:34N 39°11' E 000°34'6512.0
2015-Aug-21 17:07N 40°13' E 000°58'54 3.1
2015-Aug-20 23:33N 41°06' E 001°14'0 0.0
2015-Aug-20 22:09N 41°06' E 001°14'0 0.0
2015-Aug-20 21:19N 41°06' E 001°14'  
2015-Aug-18 05:33N 36°33' W 008°01'71 9.5
2015-Aug-17 22:05N 37°16' W 009°12'611.3
2015-Aug-17 21:33N 37°22' W 009°10'1111.1
2015-Aug-17 20:33N 37°33' W 009°09'1111.3
2015-Aug-17 19:33N 37°44' W 009°07'1111.0
2015-Aug-17 18:33N 37°55' W 009°05'1211.3
2015-Aug-17 17:32N 38°06' W 009°03'1111.1
2015-Aug-17 16:34N 38°17' W 009°01'1110.5
2015-Aug-17 15:33N 38°27' W 008°58'6 5.4
2015-Aug-17 14:31N 38°31' W 008°53'0 0.0
2015-Aug-17 13:28N 38°31' W 008°53'0 0.0
2015-Aug-17 10:13N 38°31' W 008°53'4 5.8
2015-Aug-17 09:33N 38°29' W 008°57'9 9.4
2015-Aug-17 08:33N 38°23' W 009°07'1111.2
2015-Aug-17 07:33N 38°23' W 009°21'1211.6
2015-Aug-17 06:33N 38°26' W 009°35'1111.5
2015-Aug-17 05:33N 38°30' W 009°49'1211.5
2015-Aug-17 04:33N 38°35' W 010°02'1211.3
2015-Aug-17 03:30N 38°47' W 010°05'1111.2
2015-Aug-17 02:33N 38°58' W 010°06'  
Track history (hours):
 
Tides and Currents Weather Stations Pressure Air Temp Water Temp Dewpoint Dewpoint Depression Visibility Wind Speed Wind Dir Waves Ship Positions

Filia Ariea

Last reported at 2015-Aug-25 07:07 UTC. Time now 2015-Aug-29 18:58 UTC.
Position N 40°27' W 008°56'.

Length 90 m; draft 3.2 m.

Type: Cargo ship. MMSI: 244662000.

Date/timePositionNaut miles runAvg speedWind from/ knotsBaromVisibWave heightAir tempDewpointWater temp
2015-Aug-25 07:07N 40°27' W 008°56'712.0
2015-Aug-25 06:33N 40°21' W 009°01'1412.0
2015-Aug-25 05:24N 40°10' W 009°11'1012.0
2015-Aug-25 04:33N 40°01' W 009°18'2311.6
2015-Aug-25 02:31N 39°41' W 009°34'1311.5
2015-Aug-25 01:25N 39°30' W 009°43'911.1
2015-Aug-25 00:33N 39°21' W 009°44'1111.0
2015-Aug-24 23:33N 39°10' W 009°45'2110.7
2015-Aug-24 21:34N 38°49' W 009°50'1110.6
2015-Aug-24 20:33N 38°38' W 009°49'1010.3
2015-Aug-24 19:33N 38°28' W 009°47'1010.0
2015-Aug-24 18:34N 38°18' W 009°44'10 9.5
2015-Aug-24 17:33N 38°09' W 009°41'10 9.7
2015-Aug-24 16:33N 37°60' W 009°38'1010.1
2015-Aug-24 15:33N 37°50' W 009°34'1110.4
2015-Aug-24 14:32N 37°40' W 009°31'66 9.5
2015-Aug-24 07:33N 36°42' W 008°51'1310.6
2015-Aug-24 06:21N 36°38' W 008°35'351 8.2
2015-Aug-22 11:32N 37°05' W 001°18'1311.1
2015-Aug-22 10:22N 37°14' W 001°06'911.4
2015-Aug-22 09:33N 37°20' W 000°57'1111.0
2015-Aug-22 08:33N 37°27' W 000°46'1111.4
2015-Aug-22 07:33N 37°34' W 000°35'1212.4
2015-Aug-22 06:33N 37°44' W 000°26'1312.8
2015-Aug-22 05:33N 37°55' W 000°17'1313.1
2015-Aug-22 04:33N 38°06' W 000°08'1312.4
2015-Aug-22 03:31N 38°17' E 000°00'1412.3
2015-Aug-22 02:21N 38°29' E 000°09'1012.1
2015-Aug-22 01:31N 38°38' E 000°17'1111.8
2015-Aug-22 00:33N 38°48' E 000°24'1412.4
2015-Aug-21 23:23N 39°01' E 000°29'1012.1
2015-Aug-21 22:34N 39°11' E 000°34'6512.0
2015-Aug-21 17:07N 40°13' E 000°58'54 3.1
2015-Aug-20 23:33N 41°06' E 001°14'0 0.0
2015-Aug-20 22:09N 41°06' E 001°14'0 0.0
2015-Aug-20 21:19N 41°06' E 001°14'  
2015-Aug-18 05:33N 36°33' W 008°01'71 9.5
2015-Aug-17 22:05N 37°16' W 009°12'611.3
2015-Aug-17 21:33N 37°22' W 009°10'1111.1
2015-Aug-17 20:33N 37°33' W 009°09'1111.3
2015-Aug-17 19:33N 37°44' W 009°07'1111.0
2015-Aug-17 18:33N 37°55' W 009°05'1211.3
2015-Aug-17 17:32N 38°06' W 009°03'1111.1
2015-Aug-17 16:34N 38°17' W 009°01'1110.5
2015-Aug-17 15:33N 38°27' W 008°58'6 5.4
2015-Aug-17 14:31N 38°31' W 008°53'0 0.0
2015-Aug-17 13:28N 38°31' W 008°53'0 0.0
2015-Aug-17 10:13N 38°31' W 008°53'4 5.8
2015-Aug-17 09:33N 38°29' W 008°57'9 9.4
2015-Aug-17 08:33N 38°23' W 009°07'1111.2
2015-Aug-17 07:33N 38°23' W 009°21'1211.6
2015-Aug-17 06:33N 38°26' W 009°35'1111.5
2015-Aug-17 05:33N 38°30' W 009°49'1211.5
2015-Aug-17 04:33N 38°35' W 010°02'1211.3
2015-Aug-17 03:30N 38°47' W 010°05'1111.2
2015-Aug-17 02:33N 38°58' W 010°06'  

Dump ship's entire track history